Terminal Aerodrome Forecast
Issued by NWS Mt. Holly, NJ

Home | Current Version | Previous Version | Text Only | Print | Product List | Glossary On
Versions: 1 2 3 4 5 6 7 8 9 10 11 12 13 14 15 16 17 18 19 20 21
000
FTUS41 KPHI 291720
TAFACY
TAF
KACY 291720Z 2918/3018 02010KT P6SM BKN035
     FM300000 VRB03KT P6SM SCT040
     FM301000 VRB03KT 5SM BR SCT040
     FM301400 VRB04KT P6SM BKN040=

USA.gov is the U.S. government's official web portal to all federal, state and local government web resources and services.